ROMMA est une association bénévole à but non lucratif. Votre soutien est indispensable : ADHERER à ROMMA ou FAIRE un DON

Pinsot - (38, Isère)

Vallée du Haut Bréda (750 m)   Longitude: 06° 06' E   Latitude: 45° 21' N Station partenaire n°101
 

Détail journalier du     <<     >>

Température Precipitation Humidité Pression Vent Dir Rafale Dir. rafale Ensol.
Heure (°C) (mm) (%) (hPa) (km/h) (km/h) (min)
01:00 1.609110233SSO10SSO0
02:00 1.609110223SSO11SSO0
03:00 2.109110221SSO8SSO0
04:00 2.1092102205SSO0
05:00 1.60941022000
06:00 2.808910222SSO13SSO0
07:00 2.009010213SSO19S0
08:00 1.109210222SSO10SSO0
09:00 0.809210221SSO8SSO0
10:00 1.409110213SSO13S0
11:00 2.009210211SSO13SSO0
12:00 5.8083102102SSO22
13:00 7.307710191N18N60
14:00 6.308210191N13N60
15:00 6.807910182ENE16E50
16:00 5.2087101802SSE7
17:00 4.8084101802S2
18:00 3.7086101803SSO0
19:00 2.80861018010SSO0
20:00 2.808610182SSO11SSO0
21:00 5.507410176SSO23S0
22:00 4.508810181SSO13SSO0
23:00 4.70.29310181SSO15SSO0
minuit 4.50.295101802S0

Graphique du 08-12-2019

 

Serveur OMMA